Riverchase, Alabama
Current Conditions -  °F | °C
As of 9:53 AM on Sunday 25 Jan 2015 (Local Time) from KEET Reporting Station
Clear Clear  
Wind Chill: 42°   Ceiling: Unl
Heat Index: 46°   Visibility: 10mi
Dew Point: 36°   Wind: 8mph
Humidity: 68%   Direction: 230°SW
Pressure: 29.92"   Gusts: NA
Location:  33.3655°N, 86.7846°W
Report Text: KEET 251553Z AUTO 23007KT 10SM CLR 08/02 A2992 RMK AO2 SLP131 T00780022
Loading
Personal Weather Stations






























Interactive Weather Map New forecast layout! Learn more

10-Day Weather Forecast

Advertisements
Track Severe Weather on mobile